Time;durP1;ratioP1;P1;durP2;ratioP2;P2;SDS_P1;SDS_P2;PMS_P1;PMS_P2;Temp;Humidity;BMP_temperature;BMP_pressure;BME280_temperature;BME280_humidity;BME280_pressure;Samples;Min_cycle;Max_cycle;Signal;HPM_P1;HPM_P2
2024/01/01 00:01:40;;;;;;;10.20;4.03;;;7.60;99.90;;;9.27;100.00;99275.53;5052102;28;20435;-84
2024/01/01 00:04:07;;;;;;;9.35;3.95;;;7.60;99.90;;;9.16;100.00;99273.69;5058947;28;20043;-84
2024/01/01 00:06:32;;;;;;;10.20;3.80;;;7.60;99.90;;;9.25;100.00;99265.97;5041102;28;20090;-85
2024/01/01 00:08:58;;;;;;;8.18;3.28;;;7.70;99.90;;;9.24;100.00;99256.16;5052262;28;20044;-85
2024/01/01 00:11:24;;;;;;;8.48;3.80;;;7.70;99.90;;;9.18;100.00;99252.50;5052966;28;20033;-84
2024/01/01 00:13:49;;;;;;;6.82;3.03;;;7.70;99.90;;;9.26;100.00;99264.91;5074190;28;20041;-84
2024/01/01 00:16:15;;;;;;;9.40;3.42;;;7.70;99.90;;;9.21;100.00;99257.44;5060473;28;20039;-86
2024/01/01 00:18:41;;;;;;;7.70;2.97;;;7.60;99.90;;;9.17;100.00;99245.41;5068653;28;20033;-84
2024/01/01 00:21:08;;;;;;;9.27;2.78;;;7.60;99.90;;;9.10;100.00;99250.16;5035973;28;20025;-84
2024/01/01 00:23:33;;;;;;;6.15;2.53;;;7.70;99.90;;;9.24;100.00;99256.16;5052640;28;20040;-85
2024/01/01 00:25:59;;;;;;;6.10;2.53;;;7.70;99.90;;;9.27;100.00;99255.66;5061628;28;20455;-85
2024/01/01 00:28:25;;;;;;;9.00;2.55;;;7.70;99.90;;;9.25;100.00;99258.63;5056032;28;20033;-85
2024/01/01 00:30:51;;;;;;;7.57;2.75;;;7.80;99.90;;;9.50;100.00;99260.16;5058451;28;20032;-85
2024/01/01 00:33:17;;;;;;;6.72;2.67;;;7.70;99.90;;;9.40;100.00;99260.00;5052640;28;20581;-84
2024/01/01 00:35:44;;;;;;;6.40;2.17;;;7.70;99.90;;;9.39;100.00;99242.81;5062283;28;20077;-83
2024/01/01 00:38:10;;;;;;;5.10;2.20;;;7.80;99.90;;;9.53;100.00;99259.69;5054067;28;20079;-85
2024/01/01 00:40:37;;;;;;;6.93;2.20;;;7.90;99.90;;;9.83;100.00;99264.06;5043686;28;20388;-85
2024/01/01 00:43:03;;;;;;;5.15;2.25;;;7.80;99.90;;;9.44;100.00;99251.09;5053940;28;20534;-84
2024/01/01 00:45:29;;;;;;;11.45;2.50;;;7.70;99.90;;;9.34;100.00;99257.19;5058285;28;20056;-84
2024/01/01 00:47:55;;;;;;;7.68;2.15;;;7.70;99.90;;;9.24;100.00;99262.41;5061467;28;20032;-84
2024/01/01 00:50:20;;;;;;;7.60;2.97;;;7.80;99.90;;;9.44;100.00;99293.81;5052944;28;20040;-84
2024/01/01 00:52:46;;;;;;;7.32;2.63;;;7.80;99.90;;;9.53;100.00;99269.75;5051389;28;20029;-85
2024/01/01 00:55:12;;;;;;;4.97;2.53;;;7.80;99.90;;;9.43;100.00;99279.41;5066241;28;20048;-85
2024/01/01 00:57:37;;;;;;;5.72;2.85;;;7.90;99.90;;;9.42;100.00;99283.19;5075251;28;20048;-84
2024/01/01 01:00:04;;;;;;;8.48;3.25;;;7.90;99.90;;;9.57;100.00;99269.03;5060175;28;20049;-84
2024/01/01 01:02:30;;;;;;;7.28;2.63;;;8.00;99.90;;;9.76;100.00;99285.16;5082069;28;20100;-85
2024/01/01 01:04:56;;;;;;;7.53;3.00;;;8.10;99.90;;;9.78;100.00;99280.28;5078480;28;20049;-85
2024/01/01 01:07:22;;;;;;;6.70;3.00;;;8.10;99.90;;;9.67;100.00;99292.88;5054368;28;20121;-85
2024/01/01 01:09:48;;;;;;;7.55;3.25;;;8.10;99.90;;;9.52;100.00;99279.00;5060103;28;20039;-85
2024/01/01 01:12:13;;;;;;;7.55;3.30;;;8.10;99.90;;;9.54;100.00;99287.75;5064949;28;20056;-85
2024/01/01 01:14:39;;;;;;;8.05;3.33;;;8.10;99.90;;;9.69;100.00;99290.78;5058095;28;20041;-84
2024/01/01 01:17:05;;;;;;;9.05;3.22;;;8.20;99.90;;;9.75;100.00;99294.38;5038539;28;20436;-85
2024/01/01 01:19:30;;;;;;;6.97;3.08;;;8.20;99.90;;;9.74;100.00;99299.03;5057522;28;20044;-84
2024/01/01 01:21:56;;;;;;;10.00;3.22;;;8.20;99.90;;;9.61;100.00;99291.13;5063642;28;20037;-85
2024/01/01 01:24:22;;;;;;;8.52;3.13;;;8.20;99.90;;;9.69;100.00;99301.66;5080909;28;20046;-85
2024/01/01 01:26:47;;;;;;;8.65;2.97;;;8.10;99.90;;;9.44;100.00;99275.59;5051696;28;20048;-85
2024/01/01 01:29:13;;;;;;;8.35;2.97;;;8.10;99.90;;;9.60;100.00;99281.31;5061072;28;20044;-85
2024/01/01 01:31:41;;;;;;;7.63;3.30;;;8.10;99.90;;;9.73;100.00;99283.75;5051929;28;20044;-85
2024/01/01 01:34:07;;;;;;;8.95;2.65;;;8.10;99.90;;;9.63;100.00;99295.28;5062459;28;20047;-86
2024/01/01 01:36:33;;;;;;;6.30;2.60;;;8.10;99.90;;;9.58;100.00;99294.34;5051003;28;20032;-85
2024/01/01 01:38:59;;;;;;;7.40;2.50;;;8.00;99.90;;;9.52;100.00;99292.63;5066017;28;20041;-85
2024/01/01 01:41:25;;;;;;;9.55;2.70;;;8.00;99.90;;;9.67;100.00;99308.41;5050261;28;20041;-85
2024/01/01 01:43:50;;;;;;;8.20;2.45;;;8.00;99.90;;;9.53;100.00;99297.00;5042926;28;20048;-85
2024/01/01 01:46:17;;;;;;;5.47;2.55;;;8.00;99.90;;;9.68;100.00;99288.28;5071009;28;20394;-84
2024/01/01 01:48:43;;;;;;;6.35;2.30;;;8.00;99.90;;;9.58;100.00;99305.25;5064177;28;20047;-84
2024/01/01 01:51:10;;;;;;;8.23;2.70;;;8.10;99.90;;;9.64;100.00;99294.22;5067290;28;20079;-84
2024/01/01 01:53:36;;;;;;;8.68;2.67;;;8.00;99.90;;;9.55;100.00;99281.22;5042184;28;20032;-85
2024/01/01 01:56:06;;;;;;;7.30;2.67;;;8.00;99.90;;;9.68;100.00;99301.91;5055631;28;20139;-84
2024/01/01 01:58:33;;;;;;;6.65;2.30;;;8.00;99.90;;;9.72;100.00;99301.16;5049958;28;20067;-84
2024/01/01 02:00:59;;;;;;;6.43;2.20;;;7.90;99.90;;;9.67;100.00;99298.31;5052694;28;20558;-85
2024/01/01 02:03:25;;;;;;;8.57;2.65;;;7.90;99.90;;;9.81;100.00;99295.31;5049739;28;20045;-84
2024/01/01 02:05:51;;;;;;;6.10;2.25;;;7.90;99.90;;;9.77;100.00;99292.25;5058198;28;20032;-85
2024/01/01 02:08:18;;;;;;;5.45;2.28;;;7.90;99.90;;;9.58;100.00;99284.31;5058673;28;20114;-85
2024/01/01 02:10:44;;;;;;;5.28;2.38;;;8.00;99.90;;;9.70;100.00;99291.59;5059317;28;20032;-85
2024/01/01 02:13:27;;;;;;;5.28;2.28;;;8.00;99.90;;;9.52;100.00;99277.09;5066657;28;20029;-86
2024/01/01 02:15:54;;;;;;;6.85;2.20;;;8.00;99.90;;;9.86;100.00;99293.53;5059917;28;20063;-85
2024/01/01 02:18:21;;;;;;;7.50;2.17;;;8.00;99.90;;;9.79;100.00;99277.31;5056286;28;20084;-85
2024/01/01 02:20:46;;;;;;;5.47;2.40;;;8.00;99.90;;;9.64;100.00;99283.31;5054482;28;20032;-85
2024/01/01 02:23:18;;;;;;;7.18;2.47;;;7.90;99.90;;;9.66;100.00;99280.34;5038347;28;20062;-85
2024/01/01 02:25:44;;;;;;;8.82;2.55;;;8.00;99.90;;;9.59;100.00;99263.34;5054631;28;20040;-85
2024/01/01 02:28:11;;;;;;;6.10;2.47;;;8.10;99.90;;;9.46;100.00;99276.19;5071513;28;20033;-87
2024/01/01 02:30:37;;;;;;;8.30;2.35;;;8.10;99.90;;;9.76;100.00;99282.44;5050528;28;20048;-85
2024/01/01 02:33:09;;;;;;;10.55;2.53;;;8.20;99.90;;;9.55;100.00;99290.25;5062863;28;20485;-85
2024/01/01 02:35:36;;;;;;;8.13;2.50;;;8.20;99.90;;;9.70;100.00;99294.31;5057587;28;20041;-86
2024/01/01 02:38:04;;;;;;;7.20;2.42;;;8.30;99.90;;;9.80;100.00;99294.47;5054737;28;20493;-84
2024/01/01 02:40:34;;;;;;;7.07;2.47;;;8.20;99.90;;;9.61;100.00;99280.25;5055323;28;20543;-85
2024/01/01 02:43:01;;;;;;;7.13;1.98;;;8.20;99.90;;;9.77;100.00;99298.53;5055478;28;20040;-86
2024/01/01 02:45:29;;;;;;;6.93;2.20;;;8.30;99.90;;;9.92;100.00;99292.53;5070706;28;20045;-84
2024/01/01 02:47:55;;;;;;;7.30;2.13;;;8.30;99.90;;;9.68;100.00;99289.13;5067983;28;20652;-85
2024/01/01 02:50:22;;;;;;;6.55;2.20;;;8.30;99.90;;;9.92;100.00;99300.69;5082139;28;20456;-85
2024/01/01 02:52:48;;;;;;;6.65;2.58;;;8.40;99.90;;;9.90;100.00;99291.97;5061959;28;20470;-84
2024/01/01 02:55:15;;;;;;;10.15;2.72;;;8.30;99.90;;;10.04;100.00;99302.53;5042430;28;20493;-84
2024/01/01 02:57:41;;;;;;;7.30;2.20;;;8.20;99.90;;;9.73;100.00;99280.19;5042965;28;20021;-85
2024/01/01 03:00:09;;;;;;;5.93;2.47;;;8.20;99.90;;;9.77;100.00;99281.34;5056666;28;20409;-85
2024/01/01 03:02:39;;;;;;;9.15;2.35;;;8.20;99.90;;;9.84;100.00;99303.00;5070194;28;20449;-85
2024/01/01 03:05:06;;;;;;;8.43;2.45;;;8.20;99.90;;;9.92;100.00;99292.53;5056033;28;20483;-84
2024/01/01 03:07:33;;;;;;;11.07;2.20;;;8.20;99.90;;;9.92;100.00;99286.25;5060062;28;20062;-84
2024/01/01 03:09:59;;;;;;;6.28;2.40;;;8.20;99.90;;;10.12;100.00;99287.66;5070532;28;20044;-84
2024/01/01 03:12:26;;;;;;;5.57;2.10;;;8.20;99.90;;;10.11;100.00;99289.59;5054381;28;20545;-84
2024/01/01 03:14:52;;;;;;;8.07;2.53;;;8.20;99.90;;;9.85;100.00;99286.41;5073862;28;20078;-85
2024/01/01 03:17:17;;;;;;;7.68;2.20;;;8.20;99.90;;;9.73;100.00;99301.97;5073687;28;20032;-85
2024/01/01 03:19:43;;;;;;;7.47;2.47;;;8.10;99.90;;;9.85;100.00;99274.69;5060231;28;20041;-86
2024/01/01 03:22:09;;;;;;;5.93;2.30;;;8.20;99.90;;;9.66;100.00;99298.59;5070093;28;20045;-86
2024/01/01 03:24:35;;;;;;;8.60;2.50;;;8.00;99.90;;;9.54;100.00;99299.44;5054224;28;20448;-86
2024/01/01 03:27:00;;;;;;;7.38;2.63;;;8.00;99.90;;;9.26;100.00;99303.81;5060817;28;20162;-86
2024/01/01 03:29:26;;;;;;;8.18;2.78;;;7.80;99.90;;;9.18;100.00;99302.31;5060881;28;20095;-86
2024/01/01 03:31:52;;;;;;;8.02;2.72;;;7.70;99.90;;;9.03;100.00;99310.97;5058776;28;20191;-86
2024/01/01 03:34:18;;;;;;;10.73;3.33;;;7.60;99.90;;;9.01;100.00;99304.94;5053033;28;20063;-85
2024/01/01 03:36:44;;;;;;;8.80;3.13;;;7.50;99.90;;;8.84;100.00;99307.56;5056079;28;20036;-85
2024/01/01 03:39:10;;;;;;;9.05;2.83;;;7.40;99.90;;;8.91;100.00;99312.88;5076591;28;20059;-86
2024/01/01 03:41:35;;;;;;;8.77;3.58;;;7.50;99.90;;;8.81;100.00;99307.22;5067046;28;20377;-86
2024/01/01 03:44:02;;;;;;;6.57;3.00;;;7.60;99.90;;;8.90;100.00;99300.34;5065697;28;20040;-85
2024/01/01 03:46:27;;;;;;;7.55;3.20;;;7.70;99.90;;;8.99;100.00;99303.53;5057553;28;20139;-86
2024/01/01 03:48:53;;;;;;;9.00;2.80;;;7.70;99.90;;;8.87;100.00;99288.03;5058520;28;20072;-86
2024/01/01 03:51:19;;;;;;;8.75;3.42;;;7.70;99.90;;;8.88;100.00;99288.88;5051980;28;20083;-86
2024/01/01 03:53:44;;;;;;;9.23;3.25;;;7.70;99.90;;;9.17;100.00;99273.44;5065483;28;20511;-85
2024/01/01 03:56:11;;;;;;;9.30;3.40;;;7.70;99.90;;;9.10;100.00;99293.69;5057374;28;20029;-86
2024/01/01 03:58:36;;;;;;;9.52;3.67;;;7.70;99.90;;;8.95;100.00;99289.56;5053614;28;20037;-85
2024/01/01 04:01:10;;;;;;;6.78;3.30;;;7.70;99.90;;;8.88;100.00;99275.28;5059862;28;20045;-85
2024/01/01 04:03:36;;;;;;;10.35;3.53;;;7.70;99.90;;;9.12;100.00;99281.47;5055202;28;20040;-85
2024/01/01 04:06:01;;;;;;;9.90;3.42;;;7.80;99.90;;;9.15;100.00;99280.19;5058556;28;20037;-85
2024/01/01 04:08:27;;;;;;;9.57;3.40;;;7.90;99.90;;;9.01;100.00;99288.59;5053418;28;20094;-85
2024/01/01 04:10:53;;;;;;;9.43;3.45;;;7.80;99.90;;;8.96;100.00;99283.06;5068936;28;20036;-85
2024/01/01 04:13:19;;;;;;;11.95;4.38;;;7.80;99.90;;;9.04;100.00;99268.25;5064689;28;20470;-86
2024/01/01 04:15:45;;;;;;;8.32;3.60;;;7.80;99.90;;;9.10;100.00;99289.06;5062040;28;20028;-85
2024/01/01 04:18:10;;;;;;;10.70;3.47;;;7.70;99.90;;;8.83;100.00;99267.84;5067314;28;20033;-85
2024/01/01 04:20:36;;;;;;;8.15;3.42;;;7.50;99.90;;;8.71;100.00;99280.63;5068854;28;20920;-85
2024/01/01 04:23:02;;;;;;;7.60;3.25;;;7.40;99.90;;;8.72;100.00;99296.69;5057770;28;20163;-85
2024/01/01 04:25:29;;;;;;;9.10;3.38;;;7.40;99.90;;;8.77;100.00;99293.25;5079736;28;20434;-85
2024/01/01 04:27:54;;;;;;;11.47;3.67;;;7.40;99.90;;;8.69;100.00;99278.13;5052080;28;20033;-85
2024/01/01 04:30:20;;;;;;;9.63;3.45;;;7.40;99.90;;;8.82;100.00;99285.22;5068569;28;20101;-85
2024/01/01 04:32:46;;;;;;;9.07;3.60;;;7.40;99.90;;;8.85;100.00;99270.31;5061399;28;20488;-85
2024/01/01 04:35:12;;;;;;;9.65;4.03;;;7.50;99.90;;;8.84;100.00;99276.81;5057827;28;20064;-85
2024/01/01 04:37:37;;;;;;;10.70;4.03;;;7.40;99.90;;;8.95;100.00;99280.59;5038761;28;20032;-86
2024/01/01 04:40:05;;;;;;;7.30;3.42;;;7.50;99.90;;;8.98;100.00;99275.50;5061372;28;20065;-85
2024/01/01 04:42:30;;;;;;;8.25;3.47;;;7.50;99.90;;;8.93;100.00;99267.22;5070983;28;20032;-85
2024/01/01 04:44:56;;;;;;;8.52;3.67;;;7.50;99.90;;;8.68;100.00;99257.44;5081229;28;20151;-85
2024/01/01 04:47:24;;;;;;;9.05;3.63;;;7.50;99.90;;;8.79;100.00;99261.22;5053548;28;20485;-86
2024/01/01 04:49:51;;;;;;;8.95;3.63;;;7.50;99.90;;;8.79;100.00;99261.22;5055289;28;20036;-85
2024/01/01 04:52:17;;;;;;;8.48;3.22;;;7.60;99.90;;;8.74;100.00;99251.06;5059727;28;20113;-85
2024/01/01 04:54:42;;;;;;;8.93;3.55;;;7.60;99.90;;;9.01;100.00;99249.72;5061309;28;20037;-85
2024/01/01 04:57:08;;;;;;;9.05;3.53;;;7.70;99.90;;;8.91;100.00;99250.31;5055375;28;20044;-85
2024/01/01 04:59:34;;;;;;;7.88;3.22;;;7.60;99.90;;;8.94;100.00;99268.06;5049340;28;20558;-85
2024/01/01 05:01:59;;;;;;;8.25;3.60;;;7.60;99.90;;;8.79;100.00;99250.34;5055748;28;20037;-85
2024/01/01 05:04:25;;;;;;;13.18;4.03;;;7.60;99.90;;;8.75;100.00;99244.56;5067847;28;20043;-85
2024/01/01 05:06:51;;;;;;;9.60;3.10;;;7.60;99.90;;;8.75;100.00;99255.44;5054508;28;20040;-85
2024/01/01 05:09:16;;;;;;;8.88;3.17;;;7.60;99.90;;;8.71;100.00;99242.56;5050478;28;20086;-85
2024/01/01 05:11:42;;;;;;;9.93;3.28;;;7.50;99.90;;;8.70;100.00;99252.59;5067829;28;20485;-86
2024/01/01 05:14:08;;;;;;;9.93;3.58;;;7.50;99.90;;;8.65;100.00;99249.78;5065316;28;20044;-85
2024/01/01 05:16:34;;;;;;;8.52;3.67;;;7.50;99.90;;;8.57;100.00;99250.16;5056452;28;20037;-85
2024/01/01 05:19:01;;;;;;;11.32;3.55;;;7.50;99.90;;;8.55;100.00;99244.13;5051305;28;20036;-85
2024/01/01 05:21:27;;;;;;;11.77;3.47;;;7.50;99.90;;;8.59;100.00;99262.41;5059638;28;20082;-85
2024/01/01 05:23:53;;;;;;;8.10;3.40;;;7.40;99.90;;;8.51;100.00;99238.31;5052482;28;20487;-85
2024/01/01 05:26:18;;;;;;;11.18;4.10;;;7.50;99.90;;;8.63;100.00;99251.91;5058246;28;20036;-85
2024/01/01 05:28:44;;;;;;;7.75;3.38;;;7.50;99.90;;;8.66;100.00;99245.19;5055468;28;20080;-84
2024/01/01 05:31:10;;;;;;;9.45;4.38;;;7.50;99.90;;;8.73;100.00;99260.28;5057866;28;20020;-84
2024/01/01 05:33:36;;;;;;;8.35;3.72;;;7.60;99.90;;;8.72;100.00;99258.63;5059581;28;20037;-85
2024/01/01 05:36:02;;;;;;;13.65;4.32;;;7.60;99.90;;;8.55;100.00;99236.78;5062693;28;20051;-86
2024/01/01 05:38:28;;;;;;;14.68;4.47;;;7.60;99.90;;;8.65;100.00;99243.53;5050871;28;20040;-85
2024/01/01 05:40:54;;;;;;;10.13;3.90;;;7.60;99.90;;;8.75;100.00;99260.88;5054767;28;20044;-85
2024/01/01 05:43:21;;;;;;;12.27;4.05;;;7.60;99.90;;;8.62;100.00;99237.50;5053428;28;20040;-85
2024/01/01 05:45:47;;;;;;;10.23;4.03;;;7.60;99.90;;;8.70;100.00;99271.63;5055825;28;20038;-87
2024/01/01 05:48:15;;;;;;;9.18;4.05;;;7.60;99.90;;;8.62;100.00;99272.00;5062017;28;20293;-86
2024/01/01 05:50:40;;;;;;;12.73;4.60;;;7.60;99.90;;;8.43;100.00;99293.03;5050924;28;20056;-87
2024/01/01 05:53:06;;;;;;;9.45;4.00;;;7.50;99.90;;;8.36;100.00;99274.09;5059980;28;20033;-85
2024/01/01 05:55:33;;;;;;;10.07;4.70;;;7.30;99.90;;;8.72;100.00;99304.84;5057376;28;20041;-86
2024/01/01 05:57:58;;;;;;;12.68;4.32;;;7.30;99.90;;;8.66;100.00;99311.25;5059252;28;20705;-85
2024/01/01 06:00:26;;;;;;;10.70;4.45;;;7.20;99.90;;;8.62;100.00;99301.91;5051372;28;20041;-83
2024/01/01 06:02:51;;;;;;;11.88;4.80;;;7.20;99.90;;;8.59;100.00;99324.94;5057442;28;20093;-84
2024/01/01 06:05:18;;;;;;;12.20;4.97;;;7.10;99.90;;;8.55;100.00;99322.94;5050173;28;20411;-83
2024/01/01 06:07:44;;;;;;;9.60;4.55;;;7.00;99.90;;;8.22;100.00;99333.28;5051186;28;20047;-81
2024/01/01 06:10:10;;;;;;;9.13;4.18;;;6.90;99.90;;;8.26;100.00;99341.81;5056959;28;20029;-80
2024/01/01 06:12:35;;;;;;;11.10;4.40;;;6.80;99.90;;;7.92;100.00;99334.97;5050801;28;20028;-81
2024/01/01 06:15:01;;;;;;;11.85;4.65;;;6.70;99.90;;;7.81;100.00;99318.63;5068469;28;20472;-82
2024/01/01 06:17:27;;;;;;;9.63;3.22;;;6.60;99.90;;;7.90;100.00;99330.84;5042279;28;20070;-80
2024/01/01 06:19:52;;;;;;;7.60;2.92;;;6.50;99.90;;;7.79;100.00;99321.59;5042353;28;20446;-80
2024/01/01 06:22:18;;;;;;;7.53;2.65;;;6.50;99.90;;;7.76;100.00;99317.44;5054134;28;20048;-85
2024/01/01 06:24:44;;;;;;;11.10;3.00;;;6.50;99.90;;;7.78;100.00;99315.31;5046537;28;20471;-82
2024/01/01 06:27:09;;;;;;;8.73;3.03;;;6.40;99.90;;;7.66;100.00;99310.91;5051108;28;20091;-83
2024/01/01 06:29:36;;;;;;;10.25;3.17;;;6.40;99.90;;;7.92;100.00;99317.84;5051218;28;20412;-80
2024/01/01 06:32:02;;;;;;;9.50;2.55;;;6.50;99.90;;;7.82;100.00;99318.41;5049971;28;20469;-81
2024/01/01 06:34:28;;;;;;;11.57;2.92;;;6.40;99.90;;;7.86;100.00;99308.75;5052693;28;20056;-80
2024/01/01 06:36:54;;;;;;;8.60;3.72;;;6.50;99.90;;;7.95;100.00;99317.38;5079035;28;20039;-81
2024/01/01 06:39:20;;;;;;;11.68;3.55;;;6.50;99.90;;;7.76;100.00;99311.19;5057402;28;20085;-79
2024/01/01 06:41:45;;;;;;;9.40;2.85;;;6.50;99.90;;;7.86;100.00;99318.78;5051740;28;20033;-82
2024/01/01 06:44:11;;;;;;;7.88;2.85;;;6.50;99.90;;;7.75;100.00;99313.06;5045510;28;20032;-79
2024/01/01 06:46:37;;;;;;;10.07;3.17;;;6.50;99.90;;;7.82;100.00;99317.56;5050696;28;20465;-80
2024/01/01 06:49:02;;;;;;;7.18;2.50;;;6.50;99.90;;;7.83;100.00;99313.81;5053868;28;20134;-80
2024/01/01 06:51:28;;;;;;;9.13;2.80;;;6.50;99.90;;;7.72;100.00;99304.59;5051628;28;20036;-79
2024/01/01 06:53:54;;;;;;;7.15;2.63;;;6.50;99.90;;;7.81;100.00;99315.91;5046786;28;20346;-79
2024/01/01 06:56:19;;;;;;;9.18;2.88;;;6.50;99.90;;;7.74;100.00;99316.03;5069513;28;20056;-80
2024/01/01 06:58:45;;;;;;;8.57;3.15;;;6.50;99.90;;;7.68;100.00;99334.06;5068880;28;20424;-80
2024/01/01 07:01:11;;;;;;;8.00;2.60;;;6.50;99.90;;;7.80;100.00;99323.25;5049488;28;20126;-79
2024/01/01 07:03:38;;;;;;;7.60;2.40;;;6.50;99.90;;;7.90;100.00;99337.09;5066784;28;20487;-79
2024/01/01 07:06:03;;;;;;;9.63;2.40;;;6.50;99.90;;;7.78;100.00;99311.78;5072882;28;20085;-80
2024/01/01 07:08:30;;;;;;;6.45;2.20;;;6.50;99.90;;;7.89;100.00;99327.28;5067887;28;20048;-80
2024/01/01 07:10:57;;;;;;;10.25;2.95;;;6.50;99.90;;;7.81;100.00;99321.34;5060302;28;20029;-86
2024/01/01 07:13:23;;;;;;;11.07;2.40;;;6.50;99.90;;;7.85;100.00;99336.97;5061609;28;20041;-82
2024/01/01 07:15:49;;;;;;;7.18;2.13;;;6.60;99.90;;;8.03;100.00;99346.94;5064772;28;20098;-83
2024/01/01 07:18:16;;;;;;;7.28;2.13;;;6.60;99.90;;;8.03;100.00;99343.41;5057180;28;20055;-82
2024/01/01 07:20:44;;;;;;;8.05;2.60;;;6.70;99.90;;;8.06;100.00;99349.19;5073524;28;20104;-83
2024/01/01 07:23:10;;;;;;;9.38;2.45;;;6.70;99.90;;;8.08;100.00;99348.97;5070445;28;20081;-83
2024/01/01 07:25:36;;;;;;;8.77;1.77;;;6.70;99.90;;;8.07;100.00;99358.97;5072416;28;20044;-83
2024/01/01 07:28:02;;;;;;;7.60;2.30;;;6.80;99.90;;;8.13;100.00;99365.38;5075270;28;20483;-83
2024/01/01 07:30:28;;;;;;;5.95;2.00;;;6.70;99.90;;;8.07;100.00;99347.31;5090905;28;20696;-83
2024/01/01 07:32:54;;;;;;;7.63;2.08;;;6.80;99.90;;;8.16;100.00;99361.38;5078941;28;20043;-82
2024/01/01 07:35:20;;;;;;;7.55;2.05;;;6.80;99.90;;;8.25;100.00;99373.56;5073390;28;20565;-82
2024/01/01 07:37:46;;;;;;;7.72;1.80;;;6.70;99.90;;;8.19;100.00;99377.22;5075465;28;20062;-82
2024/01/01 07:40:12;;;;;;;7.32;2.03;;;6.70;99.90;;;8.16;100.00;99367.63;5071759;28;20567;-81
2024/01/01 07:42:37;;;;;;;5.88;1.80;;;6.70;99.90;;;8.21;100.00;99370.47;5077937;28;20138;-81
2024/01/01 07:45:04;;;;;;;7.70;1.77;;;6.80;99.90;;;8.29;100.00;99377.47;5074833;28;20036;-80
2024/01/01 07:47:29;;;;;;;6.20;1.83;;;6.80;99.90;;;8.40;100.00;99384.00;5073629;28;20044;-81
2024/01/01 07:49:56;;;;;;;6.50;1.67;;;6.80;99.90;;;8.27;100.00;99385.03;5072929;28;20040;-81
2024/01/01 07:52:21;;;;;;;10.05;2.15;;;6.80;99.90;;;8.31;100.00;99377.25;5071193;28;20097;-82
2024/01/01 07:54:47;;;;;;;6.72;1.95;;;6.70;99.90;;;8.14;100.00;99374.38;5088414;28;20032;-82
2024/01/01 07:57:13;;;;;;;7.78;2.42;;;6.70;99.90;;;8.07;100.00;99377.19;5073088;28;20499;-82
2024/01/01 07:59:38;;;;;;;8.52;2.05;;;6.60;99.90;;;7.98;100.00;99375.84;5076914;28;20455;-83
2024/01/01 08:02:04;;;;;;;8.38;2.70;;;6.60;99.90;;;8.09;100.00;99385.09;5076939;28;20028;-80
2024/01/01 08:04:30;;;;;;;8.30;2.28;;;6.50;99.90;;;7.74;100.00;99359.47;5075991;28;20091;-80
2024/01/01 08:06:55;;;;;;;8.73;2.50;;;6.50;99.90;;;7.94;100.00;99378.19;5096111;28;20031;-81
2024/01/01 08:09:21;;;;;;;9.95;2.88;;;6.50;99.90;;;7.90;100.00;99380.53;5062714;28;20068;-80
2024/01/01 08:11:47;;;;;;;7.50;2.00;;;6.50;99.90;;;7.73;100.00;99379.53;5075540;28;20028;-80
2024/01/01 08:14:13;;;;;;;9.43;2.85;;;6.40;99.90;;;7.81;100.00;99386.50;5080983;28;20044;-80
2024/01/01 08:16:38;;;;;;;6.53;2.40;;;6.40;99.90;;;7.85;100.00;99382.31;5078487;28;20507;-80
2024/01/01 08:19:04;;;;;;;6.85;2.13;;;6.40;99.90;;;7.74;100.00;99387.44;5080143;28;20392;-80
2024/01/01 08:21:30;;;;;;;9.95;2.30;;;6.40;99.90;;;7.69;100.00;99372.88;5080568;28;20032;-82
2024/01/01 08:23:55;;;;;;;8.95;2.92;;;6.30;99.90;;;7.86;100.00;99383.97;5079299;28;20377;-81
2024/01/01 08:26:21;;;;;;;6.45;2.30;;;6.40;99.90;;;7.71;100.00;99377.03;5079568;28;20028;-82
2024/01/01 08:28:51;;;;;;;8.82;2.53;;;6.40;99.90;;;7.88;100.00;99381.84;5077611;28;20127;-83
2024/01/01 08:31:19;;;;;;;9.77;2.40;;;6.30;99.90;;;7.96;100.00;99394.28;5081257;28;20056;-83
2024/01/01 08:33:46;;;;;;;9.18;2.38;;;6.40;99.90;;;7.90;100.00;99390.59;5073980;28;20672;-83
2024/01/01 08:36:11;;;;;;;8.50;2.25;;;6.40;99.90;;;7.81;100.00;99371.06;5075769;28;20037;-82
2024/01/01 08:38:37;;;;;;;9.05;2.60;;;6.40;99.90;;;7.86;100.00;99381.25;5073547;28;20086;-81
2024/01/01 08:41:03;;;;;;;8.15;2.63;;;6.40;99.90;;;7.89;100.00;99384.31;5073424;28;20033;-82
2024/01/01 08:43:29;;;;;;;9.93;2.70;;;6.40;99.90;;;7.84;100.00;99381.47;5081891;28;20377;-83
2024/01/01 08:45:55;;;;;;;6.22;2.08;;;6.40;99.90;;;7.73;100.00;99379.53;5076164;28;20028;-82
2024/01/01 08:48:20;;;;;;;9.43;2.40;;;6.40;99.90;;;7.78;100.00;99387.81;5069523;28;20037;-81
2024/01/01 08:50:46;;;;;;;8.55;1.90;;;6.40;99.90;;;7.77;100.00;99381.53;5059576;28;20033;-81
2024/01/01 08:53:12;;;;;;;8.15;2.10;;;6.40;99.90;;;7.82;100.00;99391.72;5066706;28;20805;-82
2024/01/01 08:55:37;;;;;;;9.15;2.13;;;6.40;99.90;;;7.70;100.00;99390.84;5073236;28;20033;-81
2024/01/01 08:58:04;;;;;;;8.95;2.63;;;6.40;99.90;;;7.83;100.00;99393.38;5069260;28;20211;-82
2024/01/01 09:00:30;;;;;;;8.00;1.85;;;6.40;99.90;;;7.82;100.00;99389.00;5074584;28;20048;-81
2024/01/01 09:02:56;;;;;;;7.22;1.85;;;6.40;99.90;;;7.77;100.00;99389.69;5065210;28;20055;-80
2024/01/01 09:05:22;;;;;;;11.55;2.03;;;6.40;99.90;;;7.89;100.00;99406.03;5067689;28;20028;-81
2024/01/01 09:07:47;;;;;;;10.50;2.20;;;6.40;99.90;;;7.82;100.00;99396.31;5071380;28;20092;-81
2024/01/01 09:10:16;;;;;;;7.47;1.85;;;6.40;99.90;;;7.99;100.00;99410.91;5069807;28;20171;-81
2024/01/01 09:12:43;;;;;;;7.72;2.13;;;6.50;99.90;;;7.99;100.00;99415.53;5068022;28;20110;-81
2024/01/01 09:15:09;;;;;;;13.60;2.17;;;6.50;99.90;;;8.02;100.00;99413.16;5066729;28;20029;-80
2024/01/01 09:17:35;;;;;;;7.20;1.80;;;6.50;99.90;;;7.99;100.00;99413.63;5068569;28;20040;-79
2024/01/01 09:20:03;;;;;;;7.57;1.65;;;6.50;99.90;;;7.91;100.00;99417.50;5068621;28;20068;-81
2024/01/01 09:22:28;;;;;;;9.38;2.30;;;6.60;99.90;;;8.10;100.00;99416.66;5069311;28;20048;-80
2024/01/01 09:24:54;;;;;;;7.88;1.90;;;6.60;99.90;;;8.01;100.00;99427.00;5067790;28;20033;-80
2024/01/01 09:27:20;;;;;;;10.07;1.52;;;6.60;99.90;;;8.06;100.00;99419.00;5067359;28;20051;-80
2024/01/01 09:29:45;;;;;;;10.35;1.98;;;6.60;99.90;;;7.97;100.00;99426.63;5067857;28;20076;-82
2024/01/01 09:32:11;;;;;;;8.88;2.08;;;6.60;99.90;;;8.06;100.00;99424.41;5081799;28;20098;-80
2024/01/01 09:34:37;;;;;;;11.35;1.75;;;6.70;99.90;;;7.98;100.00;99417.41;5064505;28;20036;-80
2024/01/01 09:37:03;;;;;;;7.63;1.40;;;6.70;99.90;;;7.88;100.00;99407.09;5069903;28;20104;-80
2024/01/01 09:39:28;;;;;;;10.40;1.92;;;6.70;99.90;;;8.03;100.00;99439.28;5067527;28;20494;-77
2024/01/01 09:41:54;;;;;;;11.23;1.95;;;6.70;99.90;;;7.92;100.00;99418.34;5064779;28;20043;-78
2024/01/01 09:44:20;;;;;;;7.85;1.25;;;6.80;99.90;;;8.05;100.00;99422.75;5064786;28;20041;-78
2024/01/01 09:46:46;;;;;;;11.90;1.60;;;6.80;99.90;;;8.12;100.00;99407.19;5066757;28;20032;-79
2024/01/01 09:49:12;;;;;;;9.88;1.70;;;6.80;99.90;;;8.19;100.00;99418.78;5065920;28;20528;-79
2024/01/01 09:51:39;;;;;;;8.45;1.35;;;6.80;99.90;;;8.04;100.00;99426.53;5073424;28;20048;-81
2024/01/01 09:54:07;;;;;;;10.45;1.52;;;6.80;99.90;;;8.18;100.00;99429.91;5076001;28;20070;-81
2024/01/01 09:56:32;;;;;;;7.93;1.58;;;6.80;99.90;;;8.27;100.00;99419.53;5069214;28;20067;-81
2024/01/01 09:58:58;;;;;;;7.38;1.40;;;6.80;99.90;;;8.32;100.00;99435.97;5077837;28;20125;-80
2024/01/01 10:01:24;;;;;;;7.13;1.40;;;6.80;99.90;;;8.34;100.00;99437.38;5065326;28;20523;-81
2024/01/01 10:04:07;;;;;;;8.80;1.63;;;6.90;99.90;;;8.38;100.00;99437.75;5062542;28;20074;-80
2024/01/01 10:06:34;;;;;;;8.80;1.23;;;6.90;99.90;;;8.45;100.00;99438.47;5064520;28;20035;-81
2024/01/01 10:09:09;;;;;;;8.80;1.63;;;6.90;99.90;;;8.51;100.00;99442.19;5065951;28;20452;-84
2024/01/01 10:11:40;;;;;;;8.70;1.60;;;6.90;99.90;;;8.52;100.00;99452.00;5053941;28;20159;-83
2024/01/01 10:14:07;;;;;;;9.18;1.50;;;6.90;99.90;;;8.46;100.00;99448.28;5067969;28;20029;-81
2024/01/01 10:16:33;;;;;;;7.68;1.40;;;6.90;99.90;;;8.56;100.00;99457.81;5061183;28;20477;-81
2024/01/01 10:19:01;;;;;;;7.75;1.25;;;6.90;99.90;;;8.47;100.00;99476.31;5054991;28;20425;-79
2024/01/01 10:21:34;;;;;;;12.57;1.65;;;6.90;99.90;;;8.49;100.00;99463.31;5053209;28;20033;-80